sensor_id;sensor_type;location;lat;lon;timestamp;pressure;altitude;pressure_sealevel;temperature;humidity
44996;BME280;30729;49.486;10.792;2024-02-21T17:03:37;97456.22;;;9.19;100.00
44996;BME280;30729;49.486;10.792;2024-02-21T17:06:03;97449.59;;;9.35;100.00
44996;BME280;30729;49.486;10.792;2024-02-21T17:08:30;97447.59;;;9.36;100.00
44996;BME280;30729;49.486;10.792;2024-02-21T17:10:55;97442.16;;;9.32;100.00
44996;BME280;30729;49.486;10.792;2024-02-21T17:13:21;97447.88;;;9.28;100.00
44996;BME280;30729;49.486;10.792;2024-02-21T17:15:48;97442.03;;;9.26;100.00
44996;BME280;30729;49.486;10.792;2024-02-21T17:18:15;97444.31;;;9.37;100.00
44996;BME280;30729;49.486;10.792;2024-02-21T17:20:40;97438.47;;;9.44;100.00
44996;BME280;30729;49.486;10.792;2024-02-21T17:23:05;97428.88;;;9.45;100.00
44996;BME280;30729;49.486;10.792;2024-02-21T17:25:31;97431.50;;;9.49;100.00
44996;BME280;30729;49.486;10.792;2024-02-21T17:27:56;97429.50;;;9.49;100.00
44996;BME280;30729;49.486;10.792;2024-02-21T17:30:22;97431.03;;;9.50;100.00
44996;BME280;30729;49.486;10.792;2024-02-21T17:32:47;97418.69;;;9.42;100.00
44996;BME280;30729;49.486;10.792;2024-02-21T17:35:12;97413.75;;;9.37;100.00
44996;BME280;30729;49.486;10.792;2024-02-21T17:37:38;97417.59;;;9.30;100.00
44996;BME280;30729;49.486;10.792;2024-02-21T17:40:04;97430.13;;;9.35;100.00
44996;BME280;30729;49.486;10.792;2024-02-21T17:42:30;97423.97;;;9.31;100.00
44996;BME280;30729;49.486;10.792;2024-02-21T17:44:55;97431.06;;;9.32;100.00
44996;BME280;30729;49.486;10.792;2024-02-21T17:47:20;97425.97;;;9.40;100.00
44996;BME280;30729;49.486;10.792;2024-02-21T17:49:46;97422.72;;;9.41;100.00
44996;BME280;30729;49.486;10.792;2024-02-21T17:52:11;97413.44;;;9.44;100.00
44996;BME280;30729;49.486;10.792;2024-02-21T17:54:37;97412.50;;;9.38;100.00
44996;BME280;30729;49.486;10.792;2024-02-21T17:57:05;97411.44;;;9.26;100.00
44996;BME280;30729;49.486;10.792;2024-02-21T17:59:30;97406.97;;;9.29;100.00
44996;BME280;30729;49.486;10.792;2024-02-21T18:01:55;97386.88;;;9.43;100.00
44996;BME280;30729;49.486;10.792;2024-02-21T18:04:20;97381.00;;;9.50;100.00
44996;BME280;30729;49.486;10.792;2024-02-21T18:06:46;97384.25;;;9.30;100.00
44996;BME280;30729;49.486;10.792;2024-02-21T18:09:11;97381.31;;;9.25;100.00
44996;BME280;30729;49.486;10.792;2024-02-21T18:11:36;97366.19;;;9.26;100.00
44996;BME280;30729;49.486;10.792;2024-02-21T18:14:03;97366.38;;;9.22;100.00
44996;BME280;30729;49.486;10.792;2024-02-21T18:16:30;97364.97;;;9.27;100.00
44996;BME280;30729;49.486;10.792;2024-02-21T18:18:55;97372.69;;;9.23;100.00
44996;BME280;30729;49.486;10.792;2024-02-21T18:21:20;97365.00;;;9.18;100.00
44996;BME280;30729;49.486;10.792;2024-02-21T18:23:45;97371.13;;;9.13;100.00
44996;BME280;30729;49.486;10.792;2024-02-21T18:26:11;97370.69;;;9.14;100.00
44996;BME280;30729;49.486;10.792;2024-02-21T18:28:36;97362.19;;;9.27;100.00
44996;BME280;30729;49.486;10.792;2024-02-21T18:31:02;97353.53;;;9.25;100.00
44996;BME280;30729;49.486;10.792;2024-02-21T18:33:28;97352.00;;;9.33;100.00
44996;BME280;30729;49.486;10.792;2024-02-21T18:35:53;97335.47;;;9.29;100.00
44996;BME280;30729;49.486;10.792;2024-02-21T18:38:19;97322.16;;;9.43;100.00
44996;BME280;30729;49.486;10.792;2024-02-21T18:40:44;97324.97;;;9.33;100.00
44996;BME280;30729;49.486;10.792;2024-02-21T18:43:09;97351.53;;;9.16;100.00
44996;BME280;30729;49.486;10.792;2024-02-21T18:45:35;97358.19;;;9.19;100.00
44996;BME280;30729;49.486;10.792;2024-02-21T18:48:00;97360.19;;;9.18;100.00
44996;BME280;30729;49.486;10.792;2024-02-21T18:50:25;97360.47;;;9.29;100.00
44996;BME280;30729;49.486;10.792;2024-02-21T18:52:51;97360.03;;;9.31;100.00
44996;BME280;30729;49.486;10.792;2024-02-21T18:55:18;97358.31;;;9.33;100.00
44996;BME280;30729;49.486;10.792;2024-02-21T18:57:44;97339.31;;;9.41;100.00
44996;BME280;30729;49.486;10.792;2024-02-21T19:00:09;97338.84;;;9.43;100.00
44996;BME280;30729;49.486;10.792;2024-02-21T19:02:38;97334.97;;;9.49;100.00
44996;BME280;30729;49.486;10.792;2024-02-21T19:05:03;97322.50;;;9.36;100.00
44996;BME280;30729;49.486;10.792;2024-02-21T19:07:29;97314.31;;;9.32;100.00
44996;BME280;30729;49.486;10.792;2024-02-21T19:09:57;97326.66;;;9.22;100.00
44996;BME280;30729;49.486;10.792;2024-02-21T19:12:22;97309.41;;;9.27;100.00
44996;BME280;30729;49.486;10.792;2024-02-21T19:14:49;97320.34;;;9.30;100.00
44996;BME280;30729;49.486;10.792;2024-02-21T19:17:14;97318.50;;;9.27;100.00
44996;BME280;30729;49.486;10.792;2024-02-21T19:19:39;97319.88;;;9.32;100.00
44996;BME280;30729;49.486;10.792;2024-02-21T19:22:07;97316.78;;;9.30;100.00
44996;BME280;30729;49.486;10.792;2024-02-21T19:24:32;97317.72;;;9.27;100.00
44996;BME280;30729;49.486;10.792;2024-02-21T19:26:57;97294.56;;;9.30;100.00
44996;BME280;30729;49.486;10.792;2024-02-21T19:29:23;97293.78;;;9.29;100.00
44996;BME280;30729;49.486;10.792;2024-02-21T19:31:49;97294.22;;;9.37;100.00
44996;BME280;30729;49.486;10.792;2024-02-21T19:34:14;97295.31;;;9.30;100.00
44996;BME280;30729;49.486;10.792;2024-02-21T19:36:39;97286.50;;;9.41;100.00
44996;BME280;30729;49.486;10.792;2024-02-21T19:39:08;97284.63;;;9.47;100.00
44996;BME280;30729;49.486;10.792;2024-02-21T19:41:34;97287.41;;;9.47;100.00
44996;BME280;30729;49.486;10.792;2024-02-21T19:44:00;97291.47;;;9.37;100.00
44996;BME280;30729;49.486;10.792;2024-02-21T19:46:25;97280.47;;;9.43;100.00
44996;BME280;30729;49.486;10.792;2024-02-21T19:48:50;97272.09;;;9.52;100.00
44996;BME280;30729;49.486;10.792;2024-02-21T19:51:16;97272.59;;;9.50;100.00
44996;BME280;30729;49.486;10.792;2024-02-21T19:53:41;97271.34;;;9.51;100.00
44996;BME280;30729;49.486;10.792;2024-02-21T19:56:06;97260.97;;;9.52;100.00
44996;BME280;30729;49.486;10.792;2024-02-21T19:58:33;97256.19;;;9.52;100.00
44996;BME280;30729;49.486;10.792;2024-02-21T20:00:58;97262.25;;;9.42;100.00
44996;BME280;30729;49.486;10.792;2024-02-21T20:03:24;97258.75;;;9.32;100.00
44996;BME280;30729;49.486;10.792;2024-02-21T20:05:51;97252.84;;;9.39;100.00
44996;BME280;30729;49.486;10.792;2024-02-21T20:08:16;97248.19;;;9.45;100.00
44996;BME280;30729;49.486;10.792;2024-02-21T20:10:42;97233.78;;;9.56;100.00
44996;BME280;30729;49.486;10.792;2024-02-21T20:13:07;97243.91;;;9.35;100.00
44996;BME280;30729;49.486;10.792;2024-02-21T20:15:33;97236.53;;;9.23;100.00
44996;BME280;30729;49.486;10.792;2024-02-21T20:17:58;97224.16;;;9.33;100.00
44996;BME280;30729;49.486;10.792;2024-02-21T20:20:24;97214.28;;;9.32;100.00
44996;BME280;30729;49.486;10.792;2024-02-21T20:22:49;97220.91;;;9.25;100.00
44996;BME280;30729;49.486;10.792;2024-02-21T20:25:15;97213.66;;;9.28;100.00
44996;BME280;30729;49.486;10.792;2024-02-21T20:27:41;97222.63;;;9.32;100.00
44996;BME280;30729;49.486;10.792;2024-02-21T20:30:06;97222.91;;;9.34;100.00
44996;BME280;30729;49.486;10.792;2024-02-21T20:32:33;97208.50;;;9.45;100.00
44996;BME280;30729;49.486;10.792;2024-02-21T20:34:58;97204.63;;;9.51;100.00
44996;BME280;30729;49.486;10.792;2024-02-21T20:37:23;97196.44;;;9.48;100.00
44996;BME280;30729;49.486;10.792;2024-02-21T20:39:49;97192.47;;;9.40;100.00
44996;BME280;30729;49.486;10.792;2024-02-21T20:42:14;97188.09;;;9.48;100.00
44996;BME280;30729;49.486;10.792;2024-02-21T20:44:42;97191.88;;;9.36;100.00
44996;BME280;30729;49.486;10.792;2024-02-21T20:47:08;97188.13;;;9.39;100.00
44996;BME280;30729;49.486;10.792;2024-02-21T20:49:34;97185.56;;;9.35;100.00
44996;BME280;30729;49.486;10.792;2024-02-21T20:51:59;97179.19;;;9.34;100.00
44996;BME280;30729;49.486;10.792;2024-02-21T20:54:24;97171.78;;;9.41;100.00
44996;BME280;30729;49.486;10.792;2024-02-21T20:56:49;97161.44;;;9.41;100.00
44996;BME280;30729;49.486;10.792;2024-02-21T20:59:15;97155.53;;;9.48;100.00
44996;BME280;30729;49.486;10.792;2024-02-21T21:01:40;97164.75;;;9.54;100.00
44996;BME280;30729;49.486;10.792;2024-02-21T21:04:05;97150.69;;;9.58;100.00
44996;BME280;30729;49.486;10.792;2024-02-21T21:06:31;97150.22;;;9.59;100.00
44996;BME280;30729;49.486;10.792;2024-02-21T21:08:56;97157.84;;;9.50;100.00
44996;BME280;30729;49.486;10.792;2024-02-21T21:11:21;97149.19;;;9.48;100.00
44996;BME280;30729;49.486;10.792;2024-02-21T21:13:46;97130.16;;;9.55;100.00
44996;BME280;30729;49.486;10.792;2024-02-21T21:16:15;97137.00;;;9.45;100.00
44996;BME280;30729;49.486;10.792;2024-02-21T21:18:40;97128.72;;;9.60;100.00
44996;BME280;30729;49.486;10.792;2024-02-21T21:21:06;97118.38;;;9.61;100.00
44996;BME280;30729;49.486;10.792;2024-02-21T21:23:31;97123.22;;;9.51;100.00
44996;BME280;30729;49.486;10.792;2024-02-21T21:25:57;97101.69;;;9.61;100.00
44996;BME280;30729;49.486;10.792;2024-02-21T21:28:22;97106.31;;;9.64;100.00
44996;BME280;30729;49.486;10.792;2024-02-21T21:30:47;97105.25;;;9.61;100.00
44996;BME280;30729;49.486;10.792;2024-02-21T21:33:14;97111.41;;;9.65;100.00
